Time,TemperatureF,DewpointF,PressureIn,WindDirection,WindDirectionDegrees,WindSpeedMPH,WindSpeedGustMPH,Humidity,HourlyPrecipIn,Conditions,Clouds,dailyrainin,SolarRadiationWatts/m^2,SoftwareType,DateUTC
2013-07-30 00:03:00,60.0,57.0,-100.00,ESE,104,1.0,2.0,91,0.00,,,0.16,0.000000,,2013-07-30 04:03:00,
2013-07-30 00:10:00,59.0,57.0,-100.00,East,92,0.0,2.0,94,0.00,,,0.16,0.000000,,2013-07-30 04:10:00,
2013-07-30 00:43:00,59.0,57.0,-100.00,East,92,0.0,2.0,94,0.00,,,0.16,0.000000,,2013-07-30 04:43:00,
2013-07-30 00:53:00,59.0,57.0,-100.00,East,92,0.0,2.0,94,0.00,,,0.16,0.000000,,2013-07-30 04:53:00,
2013-07-30 01:03:00,59.0,57.0,-100.00,East,92,0.0,2.0,94,0.00,,,0.16,0.000000,,2013-07-30 05:03:00,
2013-07-30 01:10:00,58.0,56.0,-100.00,East,100,1.0,2.0,94,0.00,,,0.16,0.000000,,2013-07-30 05:10:00,
2013-07-30 01:45:00,58.0,56.0,-100.00,East,100,1.0,2.0,94,0.00,,,0.16,0.000000,,2013-07-30 05:45:00,
2013-07-30 01:53:00,58.0,56.0,-100.00,East,100,1.0,2.0,94,0.00,,,0.16,0.000000,,2013-07-30 05:53:00,
2013-07-30 02:03:00,58.0,56.0,-100.00,East,100,1.0,2.0,94,0.00,,,0.16,0.000000,,2013-07-30 06:03:00,
2013-07-30 02:10:00,58.0,57.0,-100.00,East,98,0.0,2.0,95,0.00,,,0.15,0.000000,,2013-07-30 06:10:00,
2013-07-30 02:43:00,58.0,57.0,-100.00,East,98,0.0,2.0,95,0.00,,,0.15,0.000000,,2013-07-30 06:43:00,
2013-07-30 02:53:00,58.0,57.0,-100.00,East,98,0.0,2.0,95,0.00,,,0.15,0.000000,,2013-07-30 06:53:00,
2013-07-30 03:03:00,58.0,57.0,-100.00,East,98,0.0,2.0,95,0.00,,,0.15,0.000000,,2013-07-30 07:03:00,
2013-07-30 03:10:00,58.0,57.0,-100.00,ESE,121,0.0,2.0,95,0.00,,,0.14,0.000000,,2013-07-30 07:10:00,
2013-07-30 03:43:00,58.0,57.0,-100.00,ESE,121,0.0,2.0,95,0.00,,,0.14,0.000000,,2013-07-30 07:43:00,
2013-07-30 03:53:00,58.0,57.0,-100.00,ESE,121,0.0,2.0,95,0.00,,,0.14,0.000000,,2013-07-30 07:53:00,
2013-07-30 04:03:00,58.0,57.0,-100.00,ESE,121,0.0,2.0,95,0.00,,,0.14,0.000000,,2013-07-30 08:03:00,
2013-07-30 04:10:00,58.0,57.0,-100.00,East,95,0.0,3.0,95,0.00,,,0.14,0.000000,,2013-07-30 08:10:00,
2013-07-30 04:43:00,58.0,57.0,-100.00,East,95,0.0,3.0,95,0.00,,,0.14,0.000000,,2013-07-30 08:43:00,
2013-07-30 04:53:00,58.0,57.0,-100.00,East,95,0.0,3.0,95,0.00,,,0.14,0.000000,,2013-07-30 08:53:00,
2013-07-30 05:03:00,58.0,57.0,-100.00,East,95,0.0,3.0,95,0.00,,,0.14,0.000000,,2013-07-30 09:03:00,
2013-07-30 05:10:00,58.0,57.0,-100.00,ESE,104,1.0,2.0,96,0.00,,,0.04,0.000000,,2013-07-30 09:10:00,
2013-07-30 05:43:00,58.0,57.0,-100.00,ESE,104,1.0,2.0,96,0.00,,,0.04,0.000000,,2013-07-30 09:43:00,
2013-07-30 05:53:00,58.0,57.0,-100.00,ESE,104,1.0,2.0,96,0.00,,,0.04,0.000000,,2013-07-30 09:53:00,
2013-07-30 06:03:00,58.0,57.0,-100.00,ESE,104,1.0,2.0,96,0.00,,,0.04,0.000000,,2013-07-30 10:03:00,
2013-07-30 06:10:00,57.0,56.0,-100.00,SE,126,0.0,1.0,96,0.00,,,0.04,6.000000,,2013-07-30 10:10:00,
2013-07-30 06:44:00,57.0,56.0,-100.00,SE,126,0.0,1.0,96,0.00,,,0.04,6.000000,,2013-07-30 10:44:00,
2013-07-30 06:52:00,57.0,56.0,-100.00,SE,126,0.0,1.0,96,0.00,,,0.04,6.000000,,2013-07-30 10:52:00,
2013-07-30 07:02:00,57.0,56.0,-100.00,SE,126,0.0,1.0,96,0.00,,,0.04,6.000000,,2013-07-30 11:02:00,
2013-07-30 07:10:00,60.0,59.0,-100.00,North,359,1.0,2.0,95,0.00,,,0.04,50.000000,,2013-07-30 11:10:00,
2013-07-30 07:43:00,60.0,59.0,-100.00,North,359,1.0,2.0,95,0.00,,,0.04,50.000000,,2013-07-30 11:43:00,
2013-07-30 07:53:00,60.0,59.0,-100.00,North,359,1.0,2.0,95,0.00,,,0.04,50.000000,,2013-07-30 11:53:00,
2013-07-30 08:10:00,67.0,63.0,-100.00,SW,214,1.0,3.0,87,0.00,,,0.04,128.000000,,2013-07-30 12:10:00,
2013-07-30 08:42:00,67.0,63.0,-100.00,SW,214,1.0,3.0,87,0.00,,,0.04,128.000000,,2013-07-30 12:42:00,
2013-07-30 08:53:00,67.0,63.0,-100.00,SW,214,1.0,3.0,87,0.00,,,0.04,128.000000,,2013-07-30 12:53:00,
2013-07-30 09:02:00,67.0,63.0,-100.00,SW,214,1.0,3.0,87,0.00,,,0.04,128.000000,,2013-07-30 13:02:00,
2013-07-30 09:10:00,69.0,58.0,-100.00,WSW,253,2.0,4.0,67,0.00,,,0.04,187.000000,,2013-07-30 13:10:00,
2013-07-30 09:43:00,69.0,58.0,-100.00,WSW,253,2.0,4.0,67,0.00,,,0.04,187.000000,,2013-07-30 13:43:00,
2013-07-30 09:53:00,69.0,58.0,-100.00,WSW,253,2.0,4.0,67,0.00,,,0.04,187.000000,,2013-07-30 13:53:00,
2013-07-30 10:03:00,69.0,58.0,-100.00,WSW,253,2.0,4.0,67,0.00,,,0.04,187.000000,,2013-07-30 14:03:00,
2013-07-30 10:10:00,69.0,54.0,-100.00,West,262,3.0,9.0,58,0.00,,,0.04,375.000000,,2013-07-30 14:10:00,
2013-07-30 10:43:00,69.0,54.0,-100.00,West,262,3.0,9.0,58,0.00,,,0.04,375.000000,,2013-07-30 14:43:00,
2013-07-30 10:53:00,69.0,54.0,-100.00,West,262,3.0,9.0,58,0.00,,,0.04,375.000000,,2013-07-30 14:53:00,
2013-07-30 11:02:00,69.0,54.0,-100.00,West,262,3.0,9.0,58,0.00,,,0.04,375.000000,,2013-07-30 15:02:00,
2013-07-30 11:10:00,72.0,55.0,-100.00,West,265,6.0,11.0,56,0.00,,,0.04,386.000000,,2013-07-30 15:10:00,
2013-07-30 11:44:00,72.0,55.0,-100.00,West,265,6.0,11.0,56,0.00,,,0.04,386.000000,,2013-07-30 15:44:00,
2013-07-30 11:53:00,72.0,55.0,-100.00,West,265,6.0,11.0,56,0.00,,,0.04,386.000000,,2013-07-30 15:53:00,
2013-07-30 12:02:00,72.0,55.0,-100.00,West,265,6.0,11.0,56,0.00,,,0.04,386.000000,,2013-07-30 16:02:00,
2013-07-30 12:10:00,74.0,52.0,-100.00,West,270,5.0,11.0,47,0.00,,,0.04,632.000000,,2013-07-30 16:10:00,
2013-07-30 12:44:00,74.0,52.0,-100.00,West,270,5.0,11.0,47,0.00,,,0.04,632.000000,,2013-07-30 16:44:00,
2013-07-30 12:53:00,74.0,52.0,-100.00,West,270,5.0,11.0,47,0.00,,,0.04,632.000000,,2013-07-30 16:53:00,
2013-07-30 13:02:00,74.0,52.0,-100.00,West,270,5.0,11.0,47,0.00,,,0.04,632.000000,,2013-07-30 17:02:00,
2013-07-30 13:10:00,73.0,52.0,-100.00,West,265,5.0,9.0,47,0.00,,,0.04,401.000000,,2013-07-30 17:10:00,
2013-07-30 13:43:00,73.0,52.0,-100.00,West,265,5.0,9.0,47,0.00,,,0.04,401.000000,,2013-07-30 17:43:00,
2013-07-30 13:54:00,73.0,52.0,-100.00,West,265,5.0,9.0,47,0.00,,,0.04,401.000000,,2013-07-30 17:54:00,
2013-07-30 14:03:00,73.0,52.0,-100.00,West,265,5.0,9.0,47,0.00,,,0.04,401.000000,,2013-07-30 18:03:00,
2013-07-30 14:10:00,74.0,52.0,-100.00,WSW,258,4.0,9.0,46,0.00,,,0.01,446.000000,,2013-07-30 18:10:00,
2013-07-30 14:43:00,74.0,52.0,-100.00,WSW,258,4.0,9.0,46,0.00,,,0.01,446.000000,,2013-07-30 18:43:00,
2013-07-30 14:52:00,74.0,52.0,-100.00,WSW,258,4.0,9.0,46,0.00,,,0.01,446.000000,,2013-07-30 18:52:00,
2013-07-30 15:03:00,74.0,52.0,-100.00,WSW,258,4.0,9.0,46,0.00,,,0.01,446.000000,,2013-07-30 19:03:00,
2013-07-30 15:10:00,75.0,56.0,-100.00,WSW,256,4.0,10.0,52,0.00,,,0.00,276.000000,,2013-07-30 19:10:00,
2013-07-30 15:44:00,75.0,56.0,-100.00,WSW,256,4.0,10.0,52,0.00,,,0.00,276.000000,,2013-07-30 19:44:00,
2013-07-30 15:53:00,75.0,56.0,-100.00,WSW,256,4.0,10.0,52,0.00,,,0.00,276.000000,,2013-07-30 19:53:00,
2013-07-30 16:02:00,75.0,56.0,-100.00,WSW,256,4.0,10.0,52,0.00,,,0.00,276.000000,,2013-07-30 20:02:00,
2013-07-30 16:10:00,76.0,54.0,-100.00,West,265,5.0,10.0,46,0.00,,,0.00,501.000000,,2013-07-30 20:10:00,
2013-07-30 16:43:00,76.0,54.0,-100.00,West,265,5.0,10.0,46,0.00,,,0.00,501.000000,,2013-07-30 20:43:00,
2013-07-30 16:52:00,76.0,54.0,-100.00,West,265,5.0,10.0,46,0.00,,,0.00,501.000000,,2013-07-30 20:52:00,
2013-07-30 17:02:00,76.0,54.0,-100.00,West,265,5.0,10.0,46,0.00,,,0.00,501.000000,,2013-07-30 21:02:00,
2013-07-30 17:10:00,77.0,53.0,-100.00,WNW,288,3.0,11.0,43,0.00,,,0.00,444.000000,,2013-07-30 21:10:00,
2013-07-30 17:42:00,77.0,53.0,-100.00,WNW,288,3.0,11.0,43,0.00,,,0.00,444.000000,,2013-07-30 21:42:00,
2013-07-30 17:53:00,77.0,53.0,-100.00,WNW,288,3.0,11.0,43,0.00,,,0.00,444.000000,,2013-07-30 21:53:00,
2013-07-30 18:02:00,77.0,53.0,-100.00,WNW,288,3.0,11.0,43,0.00,,,0.00,444.000000,,2013-07-30 22:02:00,
2013-07-30 18:10:00,78.0,55.0,-100.00,West,275,2.0,10.0,45,0.00,,,0.00,358.000000,,2013-07-30 22:10:00,
2013-07-30 18:43:00,78.0,55.0,-100.00,West,275,2.0,10.0,45,0.00,,,0.00,358.000000,,2013-07-30 22:43:00,
2013-07-30 18:53:00,78.0,55.0,-100.00,West,275,2.0,10.0,45,0.00,,,0.00,358.000000,,2013-07-30 22:53:00,
2013-07-30 19:02:00,78.0,55.0,-100.00,West,275,2.0,10.0,45,0.00,,,0.00,358.000000,,2013-07-30 23:02:00,
2013-07-30 19:10:00,71.0,51.0,-100.00,WNW,295,2.0,7.0,50,0.00,,,0.00,147.000000,,2013-07-30 23:10:00,
2013-07-30 19:32:00,71.0,51.0,-100.00,WNW,295,2.0,7.0,50,0.00,,,0.00,147.000000,,2013-07-30 23:32:00,
2013-07-30 19:42:00,71.0,51.0,-100.00,WNW,295,2.0,7.0,50,0.00,,,0.00,147.000000,,2013-07-30 23:42:00,
2013-07-30 19:53:00,71.0,51.0,-100.00,WNW,295,2.0,7.0,50,0.00,,,0.00,147.000000,,2013-07-30 23:53:00,
2013-07-30 20:02:00,71.0,51.0,-100.00,WNW,295,2.0,7.0,50,0.00,,,0.00,147.000000,,2013-07-31 00:02:00,
2013-07-30 20:10:00,67.0,54.0,-100.00,NW,316,0.0,5.0,63,0.00,,,0.00,21.000000,,2013-07-31 00:10:00,
2013-07-30 20:43:00,67.0,54.0,-100.00,NW,316,0.0,5.0,63,0.00,,,0.00,21.000000,,2013-07-31 00:43:00,
2013-07-30 20:53:00,67.0,54.0,-100.00,NW,316,0.0,5.0,63,0.00,,,0.00,21.000000,,2013-07-31 00:53:00,
2013-07-30 21:02:00,67.0,54.0,-100.00,NW,316,0.0,5.0,63,0.00,,,0.00,21.000000,,2013-07-31 01:02:00,
2013-07-30 21:10:00,61.0,56.0,-100.00,East,100,1.0,2.0,83,0.00,,,0.00,1.000000,,2013-07-31 01:10:00,
2013-07-30 21:43:00,61.0,56.0,-100.00,East,100,1.0,2.0,83,0.00,,,0.00,1.000000,,2013-07-31 01:43:00,
2013-07-30 21:52:00,61.0,56.0,-100.00,East,100,1.0,2.0,83,0.00,,,0.00,1.000000,,2013-07-31 01:52:00,
2013-07-30 22:02:00,61.0,56.0,-100.00,East,100,1.0,2.0,83,0.00,,,0.00,1.000000,,2013-07-31 02:02:00,
2013-07-30 22:10:00,58.0,55.0,-100.00,ESE,117,1.0,3.0,89,0.00,,,0.00,0.000000,,2013-07-31 02:10:00,
2013-07-30 22:43:00,58.0,55.0,-100.00,ESE,117,1.0,3.0,89,0.00,,,0.00,0.000000,,2013-07-31 02:43:00,
2013-07-30 22:53:00,58.0,55.0,-100.00,ESE,117,1.0,3.0,89,0.00,,,0.00,0.000000,,2013-07-31 02:53:00,
2013-07-30 23:02:00,58.0,55.0,-100.00,ESE,117,1.0,3.0,89,0.00,,,0.00,0.000000,,2013-07-31 03:02:00,
2013-07-30 23:10:00,56.0,54.0,-100.00,East,97,1.0,2.0,92,0.00,,,0.00,0.000000,,2013-07-31 03:10:00,
2013-07-30 23:42:00,56.0,54.0,-100.00,East,97,1.0,2.0,92,0.00,,,0.00,0.000000,,2013-07-31 03:42:00,
2013-07-30 23:52:00,56.0,54.0,-100.00,East,97,1.0,2.0,92,0.00,,,0.00,0.000000,,2013-07-31 03:52:00,